Latest Weather Observations for Low Rocky Point

IDT60801

Issued at 2:41 pm EDT Wednesday 20 January 2021 (issued every 10 minutes, with the page automatically refreshed every 10 minutes)

About weather observations | Map of weather stations | Latest weather observations for TAS | Other Formats
Station Details ID: 097080 Name: LOW ROCKY POINT Lat: -42.98 Lon: 145.50 Height: 34.0 m
Data from the previous 72 hours. | See also: Recent months at Low Rocky Point
Date/Time
EDT
Temp
°C
App
Temp
°C
Dew
Point
°C
Rel
Hum
%
Delta-T
°C
Wind Press
QNH
hPa
Press
MSL
hPa
Rain since
9am
mm
Dir  Spd
km/h
Gust
km/h
Spd
kts
Gust
kts
20/02:30pm 16.5 12.9 8.2 58 4.2 W 17 20 9 11 1023.6 1023.5 -
20/02:00pm 15.4 11.5 6.9 57 4.2 W 17 20 9 11 1023.9 1023.8 -
20/01:30pm 15.1 11.2 7.2 59 3.9 W 17 20 9 11 1024.2 1024.1 -
20/01:00pm 15.1 11.9 6.9 58 4.0 W 13 19 7 10 1024.6 1024.5 -
20/12:30pm 15.0 11.4 6.8 58 4.0 W 15 20 8 11 1024.9 1024.8 -
20/12:00pm 14.7 11.5 6.8 59 3.8 WNW 13 17 7 9 1025.2 1025.1 -
20/11:30am 15.2 12.1 7.3 59 3.9 WNW 13 19 7 10 1025.3 1025.2 -
20/11:00am 14.6 11.7 6.7 59 3.8 W 11 19 6 10 1025.5 1025.4 -
20/10:30am 14.6 11.5 7.2 61 3.6 WNW 13 20 7 11 1025.7 1025.6 -
20/10:00am 13.3 10.2 7.1 66 3.0 W 13 17 7 9 1025.8 1025.7 -
20/09:30am 13.8 11.3 8.4 70 2.7 NW 11 15 6 8 1025.8 1025.7 -
20/09:00am 12.4 9.4 7.5 72 2.4 NW 13 17 7 9 1025.9 1025.8 -
20/08:30am 12.1 9.1 7.6 74 2.2 NNW 13 17 7 9 1025.7 1025.6 -
20/08:00am 10.6 7.8 6.9 78 1.7 N 11 17 6 9 1025.5 1025.4 -
20/07:30am 9.6 5.9 6.1 79 1.6 N 15 20 8 11 1025.4 1025.3 -
20/07:00am 9.2 5.8 5.8 79 1.5 N 13 17 7 9 1025.3 1025.2 -
20/06:30am 9.1 5.7 5.7 79 1.5 N 13 17 7 9 1025.2 1025.1 -
20/06:00am 9.0 5.9 5.6 79 1.5 N 11 13 6 7 1025.4 1025.3 -
20/05:30am 9.0 5.9 5.6 79 1.5 N 11 13 6 7 1025.4 1025.3 -
20/05:00am 8.9 5.8 5.5 79 1.5 N 11 11 6 6 1025.2 1025.1 -
20/04:30am 8.7 5.5 5.1 78 1.6 N 11 13 6 7 1025.1 1025.0 -
20/04:00am 8.6 5.4 5.0 78 1.6 N 11 13 6 7 1025.0 1024.9 -
20/03:30am 8.5 5.2 4.7 77 1.7 N 11 15 6 8 1025.2 1025.1 -
20/03:00am 8.6 5.0 4.8 77 1.7 N 13 15 7 8 1025.3 1025.2 -
20/02:30am 8.7 5.8 4.7 76 1.8 N 9 11 5 6 1025.4 1025.3 -
20/02:00am 8.7 5.4 4.7 76 1.8 N 11 13 6 7 1025.5 1025.4 -
20/01:30am 8.4 6.0 4.2 75 1.8 NNE 6 11 3 6 1025.7 1025.6 -
20/01:00am 9.3 6.4 4.9 74 2.0 SSW 9 11 5 6 1025.7 1025.6 -
20/12:30am 9.6 6.4 5.0 73 2.1 SSW 11 15 6 8 1025.9 1025.8 -
20/12:00am 9.4 6.5 4.6 72 2.1 SSW 9 13 5 7 1025.9 1025.8 -
 
Date/Time
EDT
Temp
°C
App
Temp
°C
Dew
Point
°C
Rel
Hum
%
Delta-T
°C
Wind Press
QNH
hPa
Press
MSL
hPa
Rain since
9am
mm
Dir  Spd
km/h
Gust
km/h
Spd
kts
Gust
kts
19/11:30pm 9.8 6.5 4.6 70 2.3 SSW 11 15 6 8 1026.3 1026.3 -
19/11:00pm 9.7 6.4 4.5 70 2.3 SSW 11 15 6 8 1026.4 1026.4 -
19/10:30pm 9.7 6.7 4.3 69 2.4 SSW 9 13 5 7 1026.4 1026.4 -
19/10:00pm 10.2 6.4 4.1 66 2.7 S 13 15 7 8 1026.3 1026.3 -
19/09:30pm 10.5 6.4 4.4 66 2.7 S 15 20 8 11 1026.3 1026.3 -
19/09:00pm 10.6 6.5 4.3 65 2.8 SSW 15 20 8 11 1026.2 1026.2 -
19/08:30pm 11.1 7.0 4.1 62 3.1 SSW 15 20 8 11 1026.1 1026.1 -
19/08:00pm 11.9 7.3 3.9 58 3.6 SSW 17 24 9 13 1026.0 1026.0 -
19/07:30pm 12.6 7.8 4.8 59 3.6 SW 19 26 10 14 1025.8 1025.7 -
19/07:00pm 12.5 7.6 5.2 61 3.4 SW 20 30 11 16 1025.6 1025.5 -
19/06:30pm 13.0 8.7 5.4 60 3.6 SW 17 26 9 14 1025.3 1025.2 -
19/06:00pm 14.5 10.2 5.3 54 4.3 SW 17 22 9 12 1025.2 1025.1 -
19/05:30pm 14.7 10.6 4.4 50 4.8 SW 15 22 8 12 1025.4 1025.3 -
19/05:00pm 14.7 10.7 4.7 51 4.6 SW 15 20 8 11 1025.3 1025.2 -
19/04:30pm 14.5 9.8 5.3 54 4.3 SSW 19 30 10 16 1025.3 1025.2 -
19/04:00pm 14.0 9.4 5.4 56 4.0 SSW 19 28 10 15 1025.2 1025.1 -
19/03:30pm 14.2 9.5 6.1 58 3.9 SW 20 26 11 14 1025.0 1024.9 -
19/03:00pm 15.8 11.2 5.4 50 4.9 SSW 19 30 10 16 1024.8 1024.7 -
19/02:30pm 15.2 9.4 4.6 49 5.0 SSW 24 33 13 18 1024.7 1024.6 -
19/02:00pm 14.4 9.2 5.5 55 4.2 SSW 22 30 12 16 1024.8 1024.7 -
19/01:30pm 12.7 7.5 5.6 62 3.3 SSW 22 30 12 16 1024.9 1024.8 -
19/01:00pm 14.9 9.7 5.7 54 4.4 SSW 22 30 12 16 1024.8 1024.7 -
19/12:30pm 13.6 8.6 6.5 62 3.4 SSW 22 32 12 17 1024.8 1024.7 -
19/12:00pm 12.9 7.2 4.8 58 3.7 S 24 32 13 17 1024.3 1024.2 -
19/11:30am 14.0 7.4 4.3 52 4.5 S 28 35 15 19 1024.2 1024.1 -
19/11:00am 12.9 6.2 3.8 54 4.1 S 28 39 15 21 1024.0 1023.9 -
19/10:30am 12.9 5.0 2.5 49 4.6 S 33 44 18 24 1023.7 1023.6 -
19/10:00am 12.6 5.2 4.1 56 3.8 SSW 32 52 17 28 1023.3 1023.2 -
19/09:35am 11.6 4.1 3.6 58 3.5 SSW 32 50 17 27 1023.1 1023.0 -
19/09:30am 11.6 4.2 3.9 59 3.4 SSW 32 44 17 24 1023.1 1023.0 -
19/09:00am 11.8 4.6 5.0 63 3.1 SSW 32 43 17 23 1022.7 1022.6 -
19/08:30am 11.9 4.7 4.9 62 3.2 S 32 46 17 25 1022.1 1022.0 -
19/08:00am 11.2 3.8 4.0 61 3.2 SSW 32 39 17 21 1021.6 1021.5 -
19/07:30am 11.1 4.1 3.9 61 3.2 SSW 30 46 16 25 1021.2 1021.1 -
19/07:00am 10.5 2.6 4.4 66 2.7 SSW 35 48 19 26 1020.7 1020.6 -
19/06:30am 10.3 2.9 5.1 70 2.4 SSW 33 44 18 24 1020.5 1020.4 -
19/06:00am 10.1 2.4 5.3 72 2.2 S 35 56 19 30 1019.8 1019.7 -
19/05:55am 10.5 3.3 5.1 69 2.5 SSW 32 56 17 30 1019.8 1019.7 -
19/05:30am 9.9 2.6 4.3 68 2.5 SSW 32 44 17 24 1019.5 1019.4 -
19/05:00am 9.7 2.3 5.1 73 2.1 SSW 33 48 18 26 1019.1 1019.0 -
19/04:30am 10.1 2.5 5.7 74 2.0 SSW 35 48 19 26 1018.6 1018.5 -
19/04:00am 9.4 2.2 6.1 80 1.5 SSW 33 44 18 24 1018.4 1018.3 -
19/03:44am 9.8 2.8 6.2 78 1.7 SSW 32 50 17 27 1018.2 1018.1 -
19/03:30am 9.5 2.4 5.5 76 1.8 SSW 32 46 17 25 1018.3 1018.2 -
19/03:16am 10.9 4.1 5.2 68 2.6 SSW 30 52 16 28 1018.1 1018.0 -
19/03:00am 10.6 3.4 5.8 72 2.2 SW 33 43 18 23 1018.0 1017.9 -
19/02:30am 10.3 2.9 4.0 65 2.8 SSW 32 44 17 24 1018.1 1018.0 -
19/02:00am 10.4 3.7 5.4 71 2.3 SSW 30 43 16 23 1017.9 1017.8 -
19/01:33am 10.8 3.7 5.3 69 2.5 SSW 32 54 17 29 1017.8 1017.7 -
19/01:30am 10.6 3.9 5.4 70 2.4 SSW 30 43 16 23 1017.8 1017.7 -
19/01:02am 10.5 2.9 5.7 72 2.2 SSW 35 54 19 29 1017.7 1017.6 -
19/01:00am 10.8 2.9 6.0 72 2.2 SSW 37 54 20 29 1017.7 1017.6 -
19/12:57am 10.8 3.5 5.3 69 2.5 SSW 33 54 18 29 1017.6 1017.5 -
19/12:30am 10.2 3.4 5.2 71 2.3 SSW 30 44 16 24 1017.5 1017.4 -
19/12:00am 10.5 3.0 4.6 67 2.6 S 33 48 18 26 1017.2 1017.1 -
 
Date/Time
EDT
Temp
°C
App
Temp
°C
Dew
Point
°C
Rel
Hum
%
Delta-T
°C
Wind Press
QNH
hPa
Press
MSL
hPa
Rain since
9am
mm
Dir  Spd
km/h
Gust
km/h
Spd
kts
Gust
kts
18/11:30pm 10.7 4.1 4.0 63 3.0 SSW 28 39 15 21 1016.9 1016.8 -
18/11:00pm 10.4 2.0 3.7 63 2.9 SSW 37 52 20 28 1016.9 1016.8 -
18/10:30pm 9.9 2.7 5.7 75 1.9 SW 33 50 18 27 1016.6 1016.5 -
18/10:15pm 10.4 2.8 5.6 72 2.2 SW 35 54 19 29 1016.6 1016.5 -
18/10:00pm 11.1 3.5 3.9 61 3.2 SW 33 46 18 25 1016.4 1016.3 -
18/09:30pm 11.4 2.9 5.1 65 2.9 SW 39 52 21 28 1015.9 1015.8 -
18/09:00pm 11.4 3.3 5.1 65 2.9 SSW 37 56 20 30 1015.3 1015.3 -
18/08:59pm 11.4 3.3 5.1 65 2.9 SW 37 56 20 30 1015.2 1015.2 -
18/08:30pm 11.5 3.4 5.2 65 2.9 SW 37 50 20 27 1014.7 1014.7 -
18/08:09pm 11.7 4.9 7.0 73 2.3 SSW 32 50 17 27 1014.2 1014.2 -
18/08:00pm 12.3 5.2 6.6 68 2.7 SW 33 46 18 25 1014.0 1014.0 -
18/07:30pm 12.4 3.6 5.6 63 3.2 SW 41 61 22 33 1013.4 1013.4 -
18/07:01pm 12.9 5.4 6.3 64 3.1 SW 35 56 19 30 1012.7 1012.7 -
18/07:00pm 12.9 5.4 6.3 64 3.1 SW 35 50 19 27 1012.7 1012.7 -
18/06:30pm 13.6 5.6 7.6 67 3.0 WSW 39 56 21 30 1012.3 1012.3 -
18/06:05pm 14.2 7.8 9.2 72 2.6 SW 33 56 18 30 1011.8 1011.8 -
18/06:00pm 14.5 8.6 10.5 77 2.1 SW 32 43 17 23 1011.7 1011.7 -
18/05:30pm 12.5 6.4 9.9 84 1.3 SW 32 43 17 23 1011.6 1011.6 -
18/05:00pm 13.9 7.1 9.3 74 2.4 SW 35 46 19 25 1011.0 1011.0 -
18/04:30pm 15.5 7.5 10.5 72 2.6 WSW 43 63 23 34 1010.4 1010.4 -
18/04:13pm 14.7 6.7 10.5 76 2.2 WSW 43 61 23 33 1010.2 1010.2 -
18/04:00pm 14.6 5.6 10.2 75 2.3 WSW 48 57 26 31 1010.1 1010.1 -
18/03:38pm 14.1 5.0 11.4 84 1.4 WSW 50 69 27 37 1009.9 1009.9 -
18/03:30pm 14.1 6.6 12.7 91 0.8 WSW 44 54 24 29 1009.8 1009.8 -
18/03:05pm 13.5 5.9 12.4 93 0.6 W 44 63 24 34 1009.6 1009.6 -
18/03:00pm 14.4 6.7 13.4 94 0.6 W 46 59 25 32 1009.5 1009.5 -
18/02:30pm 13.7 5.4 12.6 93 0.6 W 48 63 26 34 1009.3 1009.3 -
18/02:00pm 14.0 5.3 12.6 91 0.8 WNW 50 61 27 33 1008.9 1008.9 -
18/01:30pm 14.0 5.0 12.9 93 0.6 W 52 65 28 35 1008.9 1008.9 -
18/01:00pm 14.0 5.0 12.7 92 0.7 W 52 67 28 36 1009.0 1009.0 -
18/12:30pm 13.6 4.4 13.3 98 0.2 W 54 65 29 35 1008.8 1008.8 -
18/12:03pm 13.5 4.5 12.7 95 0.4 W 52 70 28 38 1008.8 1008.8 -
18/12:00pm 14.2 6.2 13.4 95 0.4 W 48 61 26 33 1008.7 1008.7 -
18/11:30am 14.1 4.6 13.5 96 0.3 WNW 56 67 30 36 1008.5 1008.5 -
18/11:00am 13.8 4.5 13.2 96 0.3 W 54 67 29 36 1008.3 1008.3 -
18/10:30am 13.9 5.8 13.3 96 0.3 WNW 48 57 26 31 1008.3 1008.3 -
18/10:00am 13.5 5.4 13.2 98 0.2 WNW 48 59 26 32 1008.3 1008.3 -
18/09:30am 13.3 5.4 12.7 96 0.3 WNW 46 57 25 31 1008.8 1008.8 -
18/09:00am 13.0 4.9 12.2 95 0.4 WNW 46 59 25 32 1009.1 1009.1 -
18/08:30am 13.3 5.5 11.9 91 0.8 W 44 54 24 29 1009.1 1009.1 -
18/08:00am 13.7 5.0 11.4 86 1.2 WNW 48 56 26 30 1008.9 1008.9 -
18/07:30am 13.5 5.7 11.9 90 0.9 WNW 44 54 24 29 1008.8 1008.8 -
18/07:22am 13.5 5.9 12.4 93 0.6 NW 44 54 24 29 1008.8 1008.8 -
18/07:15am 13.2 5.6 12.4 95 0.4 WNW 44 54 24 29 1008.8 1008.8 -
18/07:00am 13.1 5.1 12.5 96 0.3 WNW 46 57 25 31 1008.8 1008.8 -
18/06:30am 13.2 5.8 13.0 99 0.1 WNW 44 52 24 28 1008.7 1008.7 -
18/06:00am 13.1 5.7 12.9 99 0.1 WNW 44 57 24 31 1008.6 1008.6 -
18/05:56am 13.1 5.8 12.9 99 0.1 NW 43 52 23 28 1008.6 1008.6 -
18/05:45am 13.2 5.8 13.0 99 0.1 WNW 44 54 24 29 1008.6 1008.6 -
18/05:30am 13.2 5.4 12.9 98 0.2 W 46 54 25 29 1008.4 1008.4 -
18/05:00am 13.7 5.8 12.6 93 0.6 W 46 54 25 29 1008.2 1008.2 -
18/04:30am 13.5 5.2 12.6 94 0.5 W 48 61 26 33 1007.9 1007.9 -
18/04:00am 13.6 5.9 13.3 98 0.2 W 46 57 25 31 1007.9 1007.9 -
18/03:30am 13.5 6.4 13.3 99 0.1 W 43 54 23 29 1008.1 1008.1 -
18/03:00am 13.2 6.0 13.0 99 0.1 W 43 54 23 29 1008.1 1008.1 -
18/02:30am 13.7 7.0 13.5 99 0.1 W 41 52 22 28 1008.5 1008.5 -
18/02:00am 13.8 6.6 13.2 96 0.3 W 43 54 23 29 1008.7 1008.7 -
18/01:30am 13.7 6.3 12.9 95 0.4 W 44 54 24 29 1008.6 1008.6 -
18/01:00am 13.5 6.0 12.7 95 0.4 W 44 56 24 30 1009.0 1009.0 -
18/12:30am 13.5 6.1 12.6 94 0.5 W 43 50 23 27 1009.1 1009.1 -
18/12:00am 13.5 6.6 12.7 95 0.4 WNW 41 46 22 25 1009.4 1009.4 -
 
Date/Time
EDT
Temp
°C
App
Temp
°C
Dew
Point
°C
Rel
Hum
%
Delta-T
°C
Wind Press
QNH
hPa
Press
MSL
hPa
Rain since
9am
mm
Dir  Spd
km/h
Gust
km/h
Spd
kts
Gust
kts
17/11:30pm 13.7 7.1 12.6 93 0.6 W 39 48 21 26 1009.7 1009.7 -
17/11:00pm 13.6 6.5 12.3 92 0.7 W 41 48 22 26 1009.7 1009.7 -
17/10:30pm 13.7 7.0 12.3 91 0.8 W 39 46 21 25 1010.2 1010.2 -
17/10:00pm 13.5 6.7 12.1 91 0.8 W 39 52 21 28 1010.5 1010.5 -
17/09:30pm 13.5 7.3 12.6 94 0.5 W 37 46 20 25 1010.4 1010.4 -
17/09:00pm 13.3 6.7 12.5 95 0.4 WSW 39 48 21 26 1010.5 1010.5 -
17/08:30pm 13.5 6.6 12.7 95 0.4 W 41 50 22 27 1010.0 1010.0 -
17/08:00pm 13.7 7.9 12.8 94 0.5 W 35 43 19 23 1010.4 1010.4 -
17/07:30pm 13.7 6.2 12.8 94 0.5 W 44 52 24 28 1009.9 1009.9 -
17/07:00pm 13.8 6.4 13.2 96 0.3 W 44 52 24 28 1009.9 1009.9 -
17/06:32pm 13.5 5.7 13.0 97 0.3 W 46 65 25 35 1009.6 1009.6 -
17/06:30pm 13.9 6.7 13.6 98 0.2 W 44 54 24 29 1009.7 1009.7 -
17/06:14pm 13.8 5.7 13.3 97 0.3 W 48 69 26 37 1009.4 1009.4 -
17/06:00pm 14.2 6.3 13.9 98 0.2 W 48 56 26 30 1009.6 1009.6 -
17/05:30pm 14.0 6.5 13.8 99 0.1 WNW 46 56 25 30 1009.7 1009.7 -
17/05:00pm 13.8 6.2 13.6 99 0.1 W 46 57 25 31 1009.8 1009.8 -
17/04:30pm 13.6 4.8 13.4 99 0.1 WNW 52 59 28 32 1009.8 1009.8 -
17/04:00pm 13.5 4.7 13.3 99 0.1 WNW 52 61 28 33 1010.0 1010.0 -
17/03:30pm 13.4 4.1 13.2 99 0.1 WNW 54 65 29 35 1009.9 1009.9 -
17/03:00pm 13.4 3.7 12.9 97 0.3 WNW 56 67 30 36 1009.8 1009.8 -

Other formats

Comma delimited format used in spreadsheet applications
http://www.bom.gov.au/fwo/IDT60801/IDT60801.95961.axf

JavaScript Object Notation format (JSON) in row-major order
http://www.bom.gov.au/fwo/IDT60801/IDT60801.95961.json

Data quality

Most of these data are generated automatically and are frequently updated. Quality checks on data are not normally performed. It is possible for incorrect values to appear. Refer to information at About Latest Weather Observations and please check the disclaimer before using these data.